Time;durP1;ratioP1;P1;durP2;ratioP2;P2;SDS_P1;SDS_P2;PMS_P1;PMS_P2;Temp;Humidity;BMP_temperature;BMP_pressure;BME280_temperature;BME280_humidity;BME280_pressure;Samples;Min_cycle;Max_cycle;Signal;HPM_P1;HPM_P2
2022/10/22 00:01:27;;;;;;;;;;;;;;;;;;5054887;28;739;-70
2022/10/22 00:03:53;;;;;;;;;;;;;;;;;;5054732;28;917;-71
2022/10/22 00:06:19;;;;;;;;;;;;;;;;;;5053429;28;1508;-71
2022/10/22 00:08:46;;;;;;;;;;;;;;;;;;5054718;28;1292;-69
2022/10/22 00:11:13;;;;;;;;;;;;;;;;;;5054729;28;1072;-70
2022/10/22 00:13:39;;;;;;;;;;;;;;;;;;5054679;28;707;-70
2022/10/22 00:16:07;;;;;;;;;;;;;;;;;;5054377;28;1067;-71
2022/10/22 00:18:33;;;;;;;;;;;;;;;;;;5054412;28;1913;-71
2022/10/22 00:20:59;;;;;;;;;;;;;;;;;;5054089;28;1118;-71
2022/10/22 00:23:25;;;;;;;;;;;;;;;;;;5053950;28;1072;-72
2022/10/22 00:25:52;;;;;;;;;;;;;;;;;;5054113;28;921;-71
2022/10/22 00:28:18;;;;;;;;;;;;;;;;;;5054098;28;1361;-70
2022/10/22 00:30:44;;;;;;;;;;;;;;;;;;5054167;28;861;-70
2022/10/22 00:33:12;;;;;;;;;;;;;;;;;;5053826;28;1072;-71
2022/10/22 00:35:38;;;;;;;;;;;;;;;;;;5053909;28;1118;-69
2022/10/22 00:38:04;;;;;;;;;;;;;;;;;;5054011;28;1910;-70
2022/10/22 00:40:31;;;;;;;;;;;;;;;;;;5053728;28;1290;-70
2022/10/22 00:42:57;;;;;;;;;;;;;;;;;;5053499;28;1063;-71
2022/10/22 00:45:24;;;;;;;;;;;;;;;;;;5053896;28;972;-71
2022/10/22 00:47:53;;;;;;;;;;;;;;;;;;5053667;28;763;-71
2022/10/22 00:50:21;;;;;;;;;;;;;;;;;;5053455;28;1410;-71
2022/10/22 00:52:47;;;;;;;;;;;;;;;;;;5052526;28;1068;-70
2022/10/22 00:55:14;;;;;;;;;;;;;;;;;;5053716;28;985;-70
2022/10/22 00:57:40;;;;;;;;;;;;;;;;;;5053498;28;1906;-71
2022/10/22 01:00:07;;;;;;;;;;;;;;;;;;5055657;28;1483;-68
2022/10/22 01:02:33;;;;;;;;;;;;;;;;;;5053245;28;1115;-69
2022/10/22 01:04:59;;;;;;;;;;;;;;;;;;5053206;28;873;-71
2022/10/22 01:07:27;;;;;;;;;;;;;;;;;;5053303;28;1142;-71
2022/10/22 01:09:57;;;;;;;;;;;;;;;;;;5053394;28;1314;-70
2022/10/22 01:12:27;;;;;;;;;;;;;;;;;;5052828;28;1413;-70
2022/10/22 01:14:57;;;;;;;;;;;;;;;;;;5052965;28;1139;-71
2022/10/22 01:17:23;;;;;;;;;;;;;;;;;;5052926;28;1971;-69
2022/10/22 01:19:53;;;;;;;;;;;;;;;;;;5052836;28;1387;-71
2022/10/22 01:22:20;;;;;;;;;;;;;;;;;;5035058;28;1106;-71
2022/10/22 01:24:50;;;;;;;;;;;;;;;;;;5053018;28;1412;-69
2022/10/22 01:27:20;;;;;;;;;;;;;;;;;;5053191;28;1115;-71
2022/10/22 01:29:48;;;;;;;;;;;;;;;;;;5052716;28;1285;-70
2022/10/22 01:32:15;;;;;;;;;;;;;;;;;;5052851;28;775;-71
2022/10/22 01:34:42;;;;;;;;;;;;;;;;;;5053257;28;678;-71
2022/10/22 01:37:08;;;;;;;;;;;;;;;;;;5052629;28;1935;-70
2022/10/22 01:39:34;;;;;;;;;;;;;;;;;;5052746;28;1290;-70
2022/10/22 01:42:00;;;;;;;;;;;;;;;;;;5052358;28;1214;-71
2022/10/22 01:44:27;;;;;;;;;;;;;;;;;;5052666;28;869;-71
2022/10/22 01:46:57;;;;;;;;;;;;;;;;;;5052461;28;1111;-71
2022/10/22 01:49:24;;;;;;;;;;;;;;;;;;5052463;28;1328;-70
2022/10/22 01:51:52;;;;;;;;;;;;;;;;;;5052160;28;926;-70
2022/10/22 01:54:21;;;;;;;;;;;;;;;;;;5052408;28;983;-71
2022/10/22 01:56:51;;;;;;;;;;;;;;;;;;5052448;28;937;-71
2022/10/22 01:59:19;;;;;;;;;;;;;;;;;;5052431;28;1384;-69
2022/10/22 02:01:48;;;;;;;;;;;;;;;;;;5033648;28;1434;-71
2022/10/22 02:04:17;;;;;;;;;;;;;;;;;;5052414;28;1170;-71
2022/10/22 02:06:43;;;;;;;;;;;;;;;;;;5052211;28;1080;-70
2022/10/22 02:09:09;;;;;;;;;;;;;;;;;;5052307;28;1366;-71
2022/10/22 02:11:36;;;;;;;;;;;;;;;;;;5034349;28;1719;-71
2022/10/22 02:14:02;;;;;;;;;;;;;;;;;;5052142;28;1068;-71
2022/10/22 02:16:30;;;;;;;;;;;;;;;;;;5052362;28;897;-71
2022/10/22 02:18:56;;;;;;;;;;;;;;;;;;5052118;28;1910;-71
2022/10/22 02:21:24;;;;;;;;;;;;;;;;;;5052133;28;1052;-71
2022/10/22 02:23:50;;;;;;;;;;;;;;;;;;5052164;28;976;-71
2022/10/22 02:26:20;;;;;;;;;;;;;;;;;;5052432;28;705;-71
2022/10/22 02:28:48;;;;;;;;;;;;;;;;;;5052216;28;1391;-68
2022/10/22 02:31:15;;;;;;;;;;;;;;;;;;5052085;28;1111;-70
2022/10/22 02:33:42;;;;;;;;;;;;;;;;;;5052025;28;1079;-69
2022/10/22 02:36:08;;;;;;;;;;;;;;;;;;5050781;28;1291;-71
2022/10/22 02:38:36;;;;;;;;;;;;;;;;;;5051962;28;1914;-71
2022/10/22 02:41:02;;;;;;;;;;;;;;;;;;5052038;28;1122;-71
2022/10/22 02:43:28;;;;;;;;;;;;;;;;;;5051703;28;1084;-70
2022/10/22 02:45:55;;;;;;;;;;;;;;;;;;5051728;28;1103;-71
2022/10/22 02:48:21;;;;;;;;;;;;;;;;;;5051852;28;1284;-70
2022/10/22 02:50:47;;;;;;;;;;;;;;;;;;5051929;28;815;-71
2022/10/22 02:53:13;;;;;;;;;;;;;;;;;;5054310;28;1409;-71
2022/10/22 02:55:41;;;;;;;;;;;;;;;;;;5051840;28;853;-68
2022/10/22 02:58:07;;;;;;;;;;;;;;;;;;5052116;28;1977;-71
2022/10/22 03:00:33;;;;;;;;;;;;;;;;;;5051761;28;1329;-70
2022/10/22 03:02:59;;;;;;;;;;;;;;;;;;5051515;28;1126;-71
2022/10/22 03:05:26;;;;;;;;;;;;;;;;;;5054786;28;1770;-71
2022/10/22 03:07:52;;;;;;;;;;;;;;;;;;5075504;28;1156;-70
2022/10/22 03:10:18;;;;;;;;;;;;;;;;;;5071789;28;1383;-71
2022/10/22 03:12:47;;;;;;;;;;;;;;;;;;5071265;28;1134;-70
2022/10/22 03:15:13;;;;;;;;;;;;;;;;;;5073475;28;1416;-71
2022/10/22 03:17:39;;;;;;;;;;;;;;;;;;5075123;28;1906;-70
2022/10/22 03:20:06;;;;;;;;;;;;;;;;;;5075195;28;1293;-70
2022/10/22 03:22:32;;;;;;;;;;;;;;;;;;5075188;28;1016;-70
2022/10/22 03:24:59;;;;;;;;;;;;;;;;;;5074942;28;762;-70
2022/10/22 03:27:26;;;;;;;;;;;;;;;;;;5075441;28;961;-71
2022/10/22 03:29:53;;;;;;;;;;;;;;;;;;5074939;28;1376;-71
2022/10/22 03:32:19;;;;;;;;;;;;;;;;;;5075252;28;1301;-71
2022/10/22 03:34:45;;;;;;;;;;;;;;;;;;5075049;28;897;-70
2022/10/22 03:37:12;;;;;;;;;;;;;;;;;;5075089;28;1071;-70
2022/10/22 03:39:38;;;;;;;;;;;;;;;;;;5074880;28;1910;-70
2022/10/22 03:42:04;;;;;;;;;;;;;;;;;;5074655;28;1063;-71
2022/10/22 03:44:30;;;;;;;;;;;;;;;;;;5074745;28;1079;-71
2022/10/22 03:46:58;;;;;;;;;;;;;;;;;;5074835;28;1210;-71
2022/10/22 03:49:24;;;;;;;;;;;;;;;;;;5074866;28;1368;-71
2022/10/22 03:51:50;;;;;;;;;;;;;;;;;;5074507;28;1075;-71
2022/10/22 03:54:16;;;;;;;;;;;;;;;;;;5074638;28;747;-71
2022/10/22 03:56:43;;;;;;;;;;;;;;;;;;5074805;28;1122;-70
2022/10/22 03:59:09;;;;;;;;;;;;;;;;;;5074494;28;1973;-71
2022/10/22 04:01:35;;;;;;;;;;;;;;;;;;5074499;28;1126;-70
2022/10/22 04:04:02;;;;;;;;;;;;;;;;;;5074661;28;920;-71
2022/10/22 04:06:29;;;;;;;;;;;;;;;;;;5074488;28;1067;-71
2022/10/22 04:08:55;;;;;;;;;;;;;;;;;;5074413;28;1289;-70
2022/10/22 04:11:21;;;;;;;;;;;;;;;;;;5074432;28;1408;-71
2022/10/22 04:13:48;;;;;;;;;;;;;;;;;;5074152;28;766;-71
2022/10/22 04:16:15;;;;;;;;;;;;;;;;;;5074416;28;1028;-71
2022/10/22 04:18:41;;;;;;;;;;;;;;;;;;5074159;28;1934;-70
2022/10/22 04:21:09;;;;;;;;;;;;;;;;;;5074406;28;1012;-71
2022/10/22 04:23:35;;;;;;;;;;;;;;;;;;5074338;28;805;-71
2022/10/22 04:26:02;;;;;;;;;;;;;;;;;;5073543;28;1086;-70
2022/10/22 04:28:29;;;;;;;;;;;;;;;;;;5074202;28;1313;-70
2022/10/22 04:30:55;;;;;;;;;;;;;;;;;;5073941;28;1126;-70
2022/10/22 04:33:21;;;;;;;;;;;;;;;;;;5073897;28;783;-71
2022/10/22 04:35:47;;;;;;;;;;;;;;;;;;5074098;28;704;-71
2022/10/22 04:38:15;;;;;;;;;;;;;;;;;;5073734;28;1914;-71
2022/10/22 04:40:41;;;;;;;;;;;;;;;;;;5074235;28;755;-71
2022/10/22 04:43:07;;;;;;;;;;;;;;;;;;5100781;22;3660;-75
2022/10/22 04:45:33;;;;;;;;;;;;;;;;;;5093999;28;1115;-75
2022/10/22 04:48:00;;;;;;;;;;;;;;;;;;5073050;28;1470;-76
2022/10/22 04:50:26;;;;;;;;;;;;;;;;;;5075721;28;1174;-74
2022/10/22 04:52:52;;;;;;;;;;;;;;;;;;5093485;28;1328;-73
2022/10/22 04:55:20;;;;;;;;;;;;;;;;;;5093765;28;1072;-74
2022/10/22 04:57:46;;;;;;;;;;;;;;;;;;5093960;28;948;-74
2022/10/22 05:00:12;;;;;;;;;;;;;;;;;;5093815;28;1914;-74
2022/10/22 05:02:39;;;;;;;;;;;;;;;;;;5075376;28;1321;-74
2022/10/22 05:05:05;;;;;;;;;;;;;;;;;;5093799;28;1142;-74
2022/10/22 05:07:31;;;;;;;;;;;;;;;;;;5093757;28;933;-74
2022/10/22 05:09:58;;;;;;;;;;;;;;;;;;5093774;28;1083;-75
2022/10/22 05:12:25;;;;;;;;;;;;;;;;;;5083676;28;2294;-74
2022/10/22 05:14:51;;;;;;;;;;;;;;;;;;5054376;28;1555;-74
2022/10/22 05:17:18;;;;;;;;;;;;;;;;;;5073409;28;1093;-74
2022/10/22 05:19:44;;;;;;;;;;;;;;;;;;5073108;28;1906;-73
2022/10/22 05:22:10;;;;;;;;;;;;;;;;;;5072917;28;1335;-73
2022/10/22 05:24:36;;;;;;;;;;;;;;;;;;5073156;28;1067;-74
2022/10/22 05:27:03;;;;;;;;;;;;;;;;;;5073154;28;1016;-74
2022/10/22 05:29:30;;;;;;;;;;;;;;;;;;5073149;28;1047;-74
2022/10/22 05:31:56;;;;;;;;;;;;;;;;;;5072509;28;1263;-73
2022/10/22 05:34:22;;;;;;;;;;;;;;;;;;5073158;28;1199;-73
2022/10/22 05:36:49;;;;;;;;;;;;;;;;;;5072353;28;917;-74
2022/10/22 05:39:15;;;;;;;;;;;;;;;;;;5073040;28;1910;-74
2022/10/22 05:41:41;;;;;;;;;;;;;;;;;;5072470;28;1294;-74
2022/10/22 05:44:07;;;;;;;;;;;;;;;;;;5072703;28;1092;-75
2022/10/22 05:46:35;;;;;;;;;;;;;;;;;;5072860;28;917;-75
2022/10/22 05:49:02;;;;;;;;;;;;;;;;;;5073555;28;815;-75
2022/10/22 05:51:29;;;;;;;;;;;;;;;;;;5072210;28;1367;-75
2022/10/22 05:53:58;;;;;;;;;;;;;;;;;;5072551;28;1046;-75
2022/10/22 05:56:24;;;;;;;;;;;;;;;;;;5072715;28;782;-75
2022/10/22 05:58:51;;;;;;;;;;;;;;;;;;5072460;28;1951;-74
2022/10/22 06:01:18;;;;;;;;;;;;;;;;;;5054470;28;1082;-74
2022/10/22 06:03:45;;;;;;;;;;;;;;;;;;5072551;28;1399;-76
2022/10/22 06:06:18;;;;;;;;;;;;;;;;;;5072623;28;953;-75
2022/10/22 06:08:45;;;;;;;;;;;;;;;;;;5072248;28;917;-75
2022/10/22 06:11:11;;;;;;;;;;;;;;;;;;5072618;28;881;-74
2022/10/22 06:13:38;;;;;;;;;;;;;;;;;;5071898;28;1323;-74
2022/10/22 06:16:04;;;;;;;;;;;;;;;;;;5072551;28;878;-74
2022/10/22 06:18:30;;;;;;;;;;;;;;;;;;5072363;28;1906;-74
2022/10/22 06:21:03;;;;;;;;;;;;;;;;;;5072274;28;826;-75
2022/10/22 06:23:29;;;;;;;;;;;;;;;;;;5054153;28;1379;-75
2022/10/22 06:25:56;;;;;;;;;;;;;;;;;;5072252;28;782;-75
2022/10/22 06:28:22;;;;;;;;;;;;;;;;;;5072520;28;901;-75
2022/10/22 06:30:48;;;;;;;;;;;;;;;;;;5072205;28;1079;-76
2022/10/22 06:33:14;;;;;;;;;;;;;;;;;;5071730;28;1384;-75
2022/10/22 06:35:40;;;;;;;;;;;;;;;;;;5054040;28;1237;-74
2022/10/22 06:38:08;;;;;;;;;;;;;;;;;;5072038;28;1083;-75
2022/10/22 06:40:34;;;;;;;;;;;;;;;;;;5072087;28;1987;-74
2022/10/22 06:43:00;;;;;;;;;;;;;;;;;;5071653;28;1266;-74
2022/10/22 06:45:26;;;;;;;;;;;;;;;;;;5072062;28;875;-74
2022/10/22 06:47:54;;;;;;;;;;;;;;;;;;5072462;28;1060;-75
2022/10/22 06:50:20;;;;;;;;;;;;;;;;;;5075884;28;865;-75
2022/10/22 06:52:46;;;;;;;;;;;;;;;;;;5075609;28;1264;-74
2022/10/22 06:55:14;;;;;;;;;;;;;;;;;;5076162;28;1048;-74
2022/10/22 06:57:40;;;;;;;;;;;;;;;;;;5082099;28;1476;-75
2022/10/22 07:00:07;;;;;;;;;;;;;;;;;;5096005;28;1918;-76
2022/10/22 07:02:33;;;;;;;;;;;;;;;;;;5095856;28;1296;-75
2022/10/22 07:05:00;;;;;;;;;;;;;;;;;;5096107;28;1075;-75
2022/10/22 07:07:26;;;;;;;;;;;;;;;;;;5076726;28;1138;-74
2022/10/22 07:09:52;;;;;;;;;;;;;;;;;;5095324;28;996;-75
2022/10/22 07:12:20;;;;;;;;;;;;;;;;;;5095699;28;1318;-75
2022/10/22 07:14:46;;;;;;;;;;;;;;;;;;5095461;28;1385;-75
2022/10/22 07:17:12;;;;;;;;;;;;;;;;;;5094753;28;909;-74
2022/10/22 07:19:38;;;;;;;;;;;;;;;;;;5094426;28;1953;-75
2022/10/22 07:22:04;;;;;;;;;;;;;;;;;;5094066;28;1313;-75
2022/10/22 07:24:30;;;;;;;;;;;;;;;;;;5094385;28;1008;-75
2022/10/22 07:26:57;;;;;;;;;;;;;;;;;;5094261;28;707;-75
2022/10/22 07:29:24;;;;;;;;;;;;;;;;;;5094483;28;873;-72
2022/10/22 07:31:50;;;;;;;;;;;;;;;;;;5094024;28;1312;-76
2022/10/22 07:34:17;;;;;;;;;;;;;;;;;;5094101;28;1075;-76
2022/10/22 07:36:43;;;;;;;;;;;;;;;;;;5094186;28;1099;-75
2022/10/22 07:39:09;;;;;;;;;;;;;;;;;;5093775;28;1913;-75
2022/10/22 07:41:36;;;;;;;;;;;;;;;;;;5093829;28;1280;-76
2022/10/22 07:44:02;;;;;;;;;;;;;;;;;;5093675;28;711;-74
2022/10/22 07:46:29;;;;;;;;;;;;;;;;;;5094096;28;1019;-75
2022/10/22 07:48:55;;;;;;;;;;;;;;;;;;5093827;28;1115;-75
2022/10/22 07:51:22;;;;;;;;;;;;;;;;;;5093507;28;1083;-75
2022/10/22 07:53:48;;;;;;;;;;;;;;;;;;5093605;28;1130;-75
2022/10/22 07:56:14;;;;;;;;;;;;;;;;;;5075744;28;1332;-75
2022/10/22 07:58:40;;;;;;;;;;;;;;;;;;5093544;28;957;-75
2022/10/22 08:01:07;;;;;;;;;;;;;;;;;;5074646;28;1980;-75
2022/10/22 08:03:35;;;;;;;;;;;;;;;;;;5093147;28;1269;-75
2022/10/22 08:06:01;;;;;;;;;;;;;;;;;;5093768;28;1075;-75
2022/10/22 08:08:28;;;;;;;;;;;;;;;;;;5093470;28;1005;-77
2022/10/22 08:10:55;;;;;;;;;;;;;;;;;;5075214;28;1326;-75
2022/10/22 08:13:22;;;;;;;;;;;;;;;;;;5092915;28;1328;-75
2022/10/22 08:15:48;;;;;;;;;;;;;;;;;;5093370;28;798;-75
2022/10/22 08:18:14;;;;;;;;;;;;;;;;;;5093284;28;1107;-75
2022/10/22 08:20:42;;;;;;;;;;;;;;;;;;5092864;28;1910;-75
2022/10/22 08:23:08;;;;;;;;;;;;;;;;;;5093005;28;1392;-74
2022/10/22 08:25:34;;;;;;;;;;;;;;;;;;5093065;28;777;-75
2022/10/22 08:28:00;;;;;;;;;;;;;;;;;;5093024;28;1067;-75
2022/10/22 08:30:28;;;;;;;;;;;;;;;;;;5074933;28;1644;-74
2022/10/22 08:32:54;;;;;;;;;;;;;;;;;;5092371;28;1303;-75
2022/10/22 08:35:20;;;;;;;;;;;;;;;;;;5092961;28;1079;-75
2022/10/22 08:37:48;;;;;;;;;;;;;;;;;;5092772;28;1012;-75
2022/10/22 08:40:18;;;;;;;;;;;;;;;;;;5092695;28;1967;-75
2022/10/22 08:42:50;;;;;;;;;;;;;;;;;;5092326;28;1277;-72
2022/10/22 08:45:18;;;;;;;;;;;;;;;;;;5092649;28;1063;-75
2022/10/22 08:47:48;;;;;;;;;;;;;;;;;;5092543;28;1060;-76
2022/10/22 08:50:15;;;;;;;;;;;;;;;;;;5092893;28;1107;-75
2022/10/22 08:52:42;;;;;;;;;;;;;;;;;;5092165;28;1372;-74
2022/10/22 08:55:12;;;;;;;;;;;;;;;;;;5092431;28;870;-75
2022/10/22 08:57:40;;;;;;;;;;;;;;;;;;5092365;28;953;-75
2022/10/22 09:00:09;;;;;;;;;;;;;;;;;;5092374;28;1975;-75
2022/10/22 09:02:37;;;;;;;;;;;;;;;;;;5092127;28;1292;-75
2022/10/22 09:05:06;;;;;;;;;;;;;;;;;;5092193;28;1087;-75
2022/10/22 09:07:32;;;;;;;;;;;;;;;;;;5088952;28;1510;-75
2022/10/22 09:09:58;;;;;;;;;;;;;;;;;;5092294;28;1118;-75
2022/10/22 09:12:26;;;;;;;;;;;;;;;;;;5092055;28;1297;-75
2022/10/22 09:14:52;;;;;;;;;;;;;;;;;;5091821;28;802;-75
2022/10/22 09:17:20;;;;;;;;;;;;;;;;;;5091895;28;1105;-75
2022/10/22 09:19:49;;;;;;;;;;;;;;;;;;5091774;28;1921;-76
2022/10/22 09:22:18;;;;;;;;;;;;;;;;;;5090890;28;1372;-76
2022/10/22 09:24:45;;;;;;;;;;;;;;;;;;5092806;28;1079;-75
2022/10/22 09:27:12;;;;;;;;;;;;;;;;;;5093597;28;1114;-76
2022/10/22 09:29:40;;;;;;;;;;;;;;;;;;5093303;28;1063;-74
2022/10/22 09:32:06;;;;;;;;;;;;;;;;;;5093136;28;1295;-75
2022/10/22 09:34:32;;;;;;;;;;;;;;;;;;5093149;28;1044;-75
2022/10/22 09:36:59;;;;;;;;;;;;;;;;;;5093212;28;1123;-75
2022/10/22 09:39:26;;;;;;;;;;;;;;;;;;5093273;28;1914;-75
2022/10/22 09:41:52;;;;;;;;;;;;;;;;;;5092656;28;1272;-75
2022/10/22 09:44:18;;;;;;;;;;;;;;;;;;5092883;28;1138;-75
2022/10/22 09:46:46;;;;;;;;;;;;;;;;;;5092869;28;1055;-74
2022/10/22 09:49:13;;;;;;;;;;;;;;;;;;5093047;28;886;-75
2022/10/22 09:51:46;;;;;;;;;;;;;;;;;;5074186;28;1324;-76
2022/10/22 09:54:14;;;;;;;;;;;;;;;;;;5093086;28;1075;-75
2022/10/22 09:56:40;;;;;;;;;;;;;;;;;;5092971;28;762;-76
2022/10/22 09:59:12;;;;;;;;;;;;;;;;;;5092635;28;1072;-76
2022/10/22 10:01:39;;;;;;;;;;;;;;;;;;5092602;28;1910;-76
2022/10/22 10:04:08;;;;;;;;;;;;;;;;;;5092689;28;1011;-76
2022/10/22 10:06:35;;;;;;;;;;;;;;;;;;5092653;28;1083;-76
2022/10/22 10:09:04;;;;;;;;;;;;;;;;;;5092793;28;794;-75
2022/10/22 10:11:32;;;;;;;;;;;;;;;;;;5092194;28;1276;-75
2022/10/22 10:14:03;;;;;;;;;;;;;;;;;;5092326;28;1083;-75
2022/10/22 10:16:33;;;;;;;;;;;;;;;;;;5092519;28;1051;-75
2022/10/22 10:19:02;;;;;;;;;;;;;;;;;;5092387;28;1122;-76
2022/10/22 10:21:33;;;;;;;;;;;;;;;;;;5092065;28;1910;-76
2022/10/22 10:24:01;;;;;;;;;;;;;;;;;;5091902;28;1083;-77
2022/10/22 10:26:30;;;;;;;;;;;;;;;;;;5092606;28;1294;-74
2022/10/22 10:28:59;;;;;;;;;;;;;;;;;;5092497;28;1119;-76
2022/10/22 10:31:29;;;;;;;;;;;;;;;;;;5092269;28;1294;-74
2022/10/22 10:33:57;;;;;;;;;;;;;;;;;;5092315;28;949;-76
2022/10/22 10:36:25;;;;;;;;;;;;;;;;;;5092238;28;996;-76
2022/10/22 10:38:56;;;;;;;;;;;;;;;;;;5091056;28;1059;-74
2022/10/22 10:41:25;;;;;;;;;;;;;;;;;;5091769;28;1939;-74
2022/10/22 10:43:56;;;;;;;;;;;;;;;;;;5090806;28;1075;-73
2022/10/22 10:46:23;;;;;;;;;;;;;;;;;;5090914;28;885;-73
2022/10/22 10:48:50;;;;;;;;;;;;;;;;;;5090754;28;1130;-75
2022/10/22 10:51:27;;;;;;;;;;;;;;;;;;5090786;28;924;-72
2022/10/22 10:53:58;;;;;;;;;;;;;;;;;;5090687;28;600;-73
2022/10/22 10:56:28;;;;;;;;;;;;;;;;;;5091207;28;1177;-73
2022/10/22 10:58:56;;;;;;;;;;;;;;;;;;5087650;22;1995;-72
2022/10/22 11:01:24;;;;;;;;;;;;;;;;;;5049947;28;1977;-72
2022/10/22 11:03:59;;;;;;;;;;;;;;;;;;5032669;28;1111;-73
2022/10/22 11:06:25;;;;;;;;;;;;;;;;;;5050547;28;1447;-72
2022/10/22 11:08:53;;;;;;;;;;;;;;;;;;5061275;28;1423;-72
2022/10/22 11:11:22;;;;;;;;;;;;;;;;;;5069842;28;1527;-70
2022/10/22 11:13:49;;;;;;;;;;;;;;;;;;5070753;28;1428;-72
2022/10/22 11:16:17;;;;;;;;;;;;;;;;;;5070463;28;1076;-71
2022/10/22 11:18:44;;;;;;;;;;;;;;;;;;5070503;28;1419;-72
2022/10/22 11:21:12;;;;;;;;;;;;;;;;;;5070397;28;1977;-73
2022/10/22 11:23:40;;;;;;;;;;;;;;;;;;5051884;28;1119;-73
2022/10/22 11:26:10;;;;;;;;;;;;;;;;;;5070347;28;1068;-73
2022/10/22 11:28:39;;;;;;;;;;;;;;;;;;5052782;28;1430;-69
2022/10/22 11:31:07;;;;;;;;;;;;;;;;;;5070191;28;1385;-71
2022/10/22 11:33:35;;;;;;;;;;;;;;;;;;5070200;28;806;-72
2022/10/22 11:36:02;;;;;;;;;;;;;;;;;;5072014;28;779;-72
2022/10/22 11:38:30;;;;;;;;;;;;;;;;;;5056044;28;1377;-72
2022/10/22 11:40:57;;;;;;;;;;;;;;;;;;5055696;28;1920;-73
2022/10/22 11:43:27;;;;;;;;;;;;;;;;;;5055677;28;904;-71
2022/10/22 11:45:58;;;;;;;;;;;;;;;;;;5073693;28;917;-72
2022/10/22 11:48:26;;;;;;;;;;;;;;;;;;5073722;28;1317;-72
2022/10/22 11:50:55;;;;;;;;;;;;;;;;;;5073729;28;798;-72
2022/10/22 11:53:29;;;;;;;;;;;;;;;;;;5073310;28;1059;-72
2022/10/22 11:55:56;;;;;;;;;;;;;;;;;;5055702;28;1071;-72
2022/10/22 11:58:30;;;;;;;;;;;;;;;;;;5073534;28;1348;-72
2022/10/22 12:00:58;;;;;;;;;;;;;;;;;;5055379;28;1961;-72
2022/10/22 12:03:25;;;;;;;;;;;;;;;;;;5073485;28;1115;-72
2022/10/22 12:06:02;;;;;;;;;;;;;;;;;;5073085;28;1381;-72
2022/10/22 12:08:29;;;;;;;;;;;;;;;;;;5073371;28;1458;-72
2022/10/22 12:11:00;;;;;;;;;;;;;;;;;;5055080;28;1375;-71
2022/10/22 12:13:27;;;;;;;;;;;;;;;;;;5073324;28;893;-72
2022/10/22 12:15:54;;;;;;;;;;;;;;;;;;5073189;28;949;-72
2022/10/22 12:18:22;;;;;;;;;;;;;;;;;;5072858;28;1383;-72
2022/10/22 12:20:49;;;;;;;;;;;;;;;;;;5072983;28;1974;-72
2022/10/22 12:23:15;;;;;;;;;;;;;;;;;;5072480;28;854;-72
2022/10/22 12:25:41;;;;;;;;;;;;;;;;;;5071685;28;1128;-72
2022/10/22 12:28:09;;;;;;;;;;;;;;;;;;5054685;28;1457;-72
2022/10/22 12:30:36;;;;;;;;;;;;;;;;;;5072926;28;976;-72
2022/10/22 12:33:02;;;;;;;;;;;;;;;;;;5054346;28;1263;-72
2022/10/22 12:35:30;;;;;;;;;;;;;;;;;;5072461;28;1940;-71
2022/10/22 12:37:57;;;;;;;;;;;;;;;;;;5071317;28;1435;-70
2022/10/22 12:40:25;;;;;;;;;;;;;;;;;;5072750;28;1956;-71
2022/10/22 12:42:52;;;;;;;;;;;;;;;;;;5072483;28;838;-72
2022/10/22 12:45:18;;;;;;;;;;;;;;;;;;5054791;28;814;-71
2022/10/22 12:47:48;;;;;;;;;;;;;;;;;;5072502;28;1399;-72
2022/10/22 12:50:18;;;;;;;;;;;;;;;;;;5072800;28;1119;-72
2022/10/22 12:52:45;;;;;;;;;;;;;;;;;;5072617;28;1079;-71
2022/10/22 12:55:14;;;;;;;;;;;;;;;;;;5072287;28;1330;-74
2022/10/22 12:57:41;;;;;;;;;;;;;;;;;;5072528;28;1414;-71
2022/10/22 13:00:19;;;;;;;;;;;;;;;;;;5072083;28;1009;-71
2022/10/22 13:02:45;;;;;;;;;;;;;;;;;;5071933;28;1922;-69
2022/10/22 13:05:16;;;;;;;;;;;;;;;;;;5072058;28;1563;-70
2022/10/22 13:07:42;;;;;;;;;;;;;;;;;;5072287;28;1331;-71
2022/10/22 13:10:17;;;;;;;;;;;;;;;;;;5072150;28;933;-73
2022/10/22 13:12:44;;;;;;;;;;;;;;;;;;5071862;28;814;-72
2022/10/22 13:15:20;;;;;;;;;;;;;;;;;;5072006;28;1134;-71
2022/10/22 13:17:47;;;;;;;;;;;;;;;;;;5053491;28;1668;-71
2022/10/22 13:20:17;;;;;;;;;;;;;;;;;;5053975;28;1143;-71
2022/10/22 13:22:52;;;;;;;;;;;;;;;;;;5071709;28;1918;-73
2022/10/22 13:25:21;;;;;;;;;;;;;;;;;;5053887;28;1044;-72
2022/10/22 13:27:48;;;;;;;;;;;;;;;;;;5054075;28;1489;-73
2022/10/22 13:30:17;;;;;;;;;;;;;;;;;;5071565;28;960;-72
2022/10/22 13:32:43;;;;;;;;;;;;;;;;;;5071449;28;898;-72
2022/10/22 13:35:12;;;;;;;;;;;;;;;;;;5070916;28;1201;-71
2022/10/22 13:37:38;;;;;;;;;;;;;;;;;;5071643;28;1325;-70
2022/10/22 13:40:10;;;;;;;;;;;;;;;;;;5072895;28;1084;-71
2022/10/22 13:42:38;;;;;;;;;;;;;;;;;;5072717;28;1917;-72
2022/10/22 13:45:04;;;;;;;;;;;;;;;;;;5072913;28;957;-72
2022/10/22 13:47:31;;;;;;;;;;;;;;;;;;5055062;28;1247;-72
2022/10/22 13:49:58;;;;;;;;;;;;;;;;;;5054865;28;1502;-72
2022/10/22 13:52:34;;;;;;;;;;;;;;;;;;5072506;28;956;-72
2022/10/22 13:55:00;;;;;;;;;;;;;;;;;;5054593;28;870;-72
2022/10/22 13:57:27;;;;;;;;;;;;;;;;;;5072556;28;763;-72
2022/10/22 13:59:54;;;;;;;;;;;;;;;;;;5072197;28;1300;-72
2022/10/22 14:02:23;;;;;;;;;;;;;;;;;;5072237;28;1918;-73
2022/10/22 14:04:49;;;;;;;;;;;;;;;;;;5072748;28;1387;-73
2022/10/22 14:07:16;;;;;;;;;;;;;;;;;;5072555;28;1086;-72
2022/10/22 14:09:42;;;;;;;;;;;;;;;;;;5072887;28;1305;-72
2022/10/22 14:12:12;;;;;;;;;;;;;;;;;;5054280;28;1099;-70
2022/10/22 14:14:38;;;;;;;;;;;;;;;;;;5072583;28;932;-72
2022/10/22 14:17:08;;;;;;;;;;;;;;;;;;5072543;28;1099;-72
2022/10/22 14:19:34;;;;;;;;;;;;;;;;;;5054483;28;1412;-72
2022/10/22 14:22:00;;;;;;;;;;;;;;;;;;5072168;28;1965;-72
2022/10/22 14:24:26;;;;;;;;;;;;;;;;;;5054397;28;1132;-72
2022/10/22 14:26:53;;;;;;;;;;;;;;;;;;5072597;28;909;-72
2022/10/22 14:29:19;;;;;;;;;;;;;;;;;;5072316;28;1282;-71
2022/10/22 14:31:45;;;;;;;;;;;;;;;;;;5054044;28;1313;-72
2022/10/22 14:34:13;;;;;;;;;;;;;;;;;;5072222;28;890;-72
2022/10/22 14:36:42;;;;;;;;;;;;;;;;;;5072289;28;779;-70
2022/10/22 14:39:08;;;;;;;;;;;;;;;;;;5072476;28;1303;-71
2022/10/22 14:41:34;;;;;;;;;;;;;;;;;;5071541;28;1914;-72
2022/10/22 14:44:00;;;;;;;;;;;;;;;;;;5067330;28;1087;-72
2022/10/22 14:46:27;;;;;;;;;;;;;;;;;;5070002;28;948;-72
2022/10/22 14:48:53;;;;;;;;;;;;;;;;;;5066851;28;1312;-72
2022/10/22 14:51:21;;;;;;;;;;;;;;;;;;5063429;28;2269;-70
2022/10/22 14:53:47;;;;;;;;;;;;;;;;;;5055951;28;1125;-73
2022/10/22 14:56:13;;;;;;;;;;;;;;;;;;5052009;28;933;-72
2022/10/22 14:58:40;;;;;;;;;;;;;;;;;;5051987;28;1346;-72
2022/10/22 15:01:06;;;;;;;;;;;;;;;;;;5061783;28;1910;-72
2022/10/22 15:03:33;;;;;;;;;;;;;;;;;;5071853;28;1117;-72
2022/10/22 15:05:59;;;;;;;;;;;;;;;;;;5072255;28;862;-71
2022/10/22 15:08:27;;;;;;;;;;;;;;;;;;5054236;28;1317;-72
2022/10/22 15:10:59;;;;;;;;;;;;;;;;;;5075541;28;1063;-72
2022/10/22 15:13:26;;;;;;;;;;;;;;;;;;5057041;28;1487;-70
2022/10/22 15:15:52;;;;;;;;;;;;;;;;;;5075758;28;1088;-73
2022/10/22 15:18:18;;;;;;;;;;;;;;;;;;5057657;28;1373;-73
2022/10/22 15:20:44;;;;;;;;;;;;;;;;;;5075903;28;1091;-74
2022/10/22 15:23:10;;;;;;;;;;;;;;;;;;5075139;28;1906;-73
2022/10/22 15:25:38;;;;;;;;;;;;;;;;;;5075387;28;813;-73
2022/10/22 15:28:04;;;;;;;;;;;;;;;;;;5056862;28;1393;-72
2022/10/22 15:30:30;;;;;;;;;;;;;;;;;;5075179;28;1083;-72
2022/10/22 15:32:56;;;;;;;;;;;;;;;;;;5074910;28;775;-72
2022/10/22 15:35:23;;;;;;;;;;;;;;;;;;5075546;28;1076;-72
2022/10/22 15:37:50;;;;;;;;;;;;;;;;;;5075268;28;1472;-72
2022/10/22 15:40:16;;;;;;;;;;;;;;;;;;5075434;28;961;-71
2022/10/22 15:42:45;;;;;;;;;;;;;;;;;;5056939;28;1906;-72
2022/10/22 15:45:11;;;;;;;;;;;;;;;;;;5075398;28;1052;-72
2022/10/22 15:47:37;;;;;;;;;;;;;;;;;;5057430;28;1301;-69
2022/10/22 15:50:04;;;;;;;;;;;;;;;;;;5074874;28;755;-71
2022/10/22 15:52:30;;;;;;;;;;;;;;;;;;5056968;28;1107;-71
2022/10/22 15:54:57;;;;;;;;;;;;;;;;;;5074779;28;1087;-70
2022/10/22 15:57:23;;;;;;;;;;;;;;;;;;5074954;28;874;-72
2022/10/22 15:59:50;;;;;;;;;;;;;;;;;;5074872;28;1346;-71
2022/10/22 16:02:17;;;;;;;;;;;;;;;;;;5056523;28;1975;-72
2022/10/22 16:04:43;;;;;;;;;;;;;;;;;;5074961;28;953;-72
2022/10/22 16:07:09;;;;;;;;;;;;;;;;;;5074604;28;1075;-71
2022/10/22 16:09:35;;;;;;;;;;;;;;;;;;5057021;28;1395;-72
2022/10/22 16:12:01;;;;;;;;;;;;;;;;;;5056644;28;1120;-72
2022/10/22 16:14:28;;;;;;;;;;;;;;;;;;5074654;28;853;-70
2022/10/22 16:16:56;;;;;;;;;;;;;;;;;;5074765;28;1071;-71
2022/10/22 16:19:22;;;;;;;;;;;;;;;;;;5074452;28;1226;-72
2022/10/22 16:21:49;;;;;;;;;;;;;;;;;;5072351;28;2059;-73
2022/10/22 16:24:16;;;;;;;;;;;;;;;;;;5056642;28;1159;-72
2022/10/22 16:26:42;;;;;;;;;;;;;;;;;;5074251;28;1079;-72
2022/10/22 16:29:10;;;;;;;;;;;;;;;;;;5056152;28;1407;-72
2022/10/22 16:31:36;;;;;;;;;;;;;;;;;;5074265;28;642;-72
2022/10/22 16:34:04;;;;;;;;;;;;;;;;;;5056281;28;1179;-72
2022/10/22 16:36:30;;;;;;;;;;;;;;;;;;5074188;28;1329;-72
2022/10/22 16:38:56;;;;;;;;;;;;;;;;;;5073837;28;1336;-73
2022/10/22 16:41:23;;;;;;;;;;;;;;;;;;5073719;28;727;-74
2022/10/22 16:43:49;;;;;;;;;;;;;;;;;;5073761;28;1980;-71
2022/10/22 16:46:16;;;;;;;;;;;;;;;;;;5073963;28;1111;-72
2022/10/22 16:48:44;;;;;;;;;;;;;;;;;;5073883;28;1286;-72
2022/10/22 16:51:12;;;;;;;;;;;;;;;;;;5073326;28;827;-72
2022/10/22 16:53:39;;;;;;;;;;;;;;;;;;5055617;28;1126;-72
2022/10/22 16:56:07;;;;;;;;;;;;;;;;;;5073679;28;933;-71
2022/10/22 16:58:34;;;;;;;;;;;;;;;;;;5073532;28;1403;-72
2022/10/22 17:01:00;;;;;;;;;;;;;;;;;;5068481;22;3709;-73
2022/10/22 17:03:26;;;;;;;;;;;;;;;;;;5072197;28;1910;-77
2022/10/22 17:05:52;;;;;;;;;;;;;;;;;;5091740;28;1471;-76
2022/10/22 17:08:20;;;;;;;;;;;;;;;;;;5093786;28;782;-75